AZO955 UTDK-ULMM
Flight info
| Callsign | AZO955 |
|---|---|
| Flight time | N/A |
| Altitude | 34000 |
| Route | JD19D JD G500 SX DCT OSBOR Z753 PAVEL M741 LAMGI/K0830F360 M741 KST L145 LANOR R482 ALUMA N170 PENUS T762 LIKPA T822 LOPRA LOPRA1M |
| Aircraft | B738/M-SDE2E3FGHIRWXY/LB1 |
Departure
| Time | 2026-04-24 02:58 |
|---|---|
| Airport | Kulob International Airport (UTDK) |
Arrival
| Time | N/A |
|---|---|
| Airport | Emperor Nicholas II Murmansk Airport (ULMM) |
| Time | Latitude | Longitude | Altitude | Speed | Heading |
|---|---|---|---|---|---|
| 2026-04-24 01:55 | 37.98225 | 69.80582 | 2204 ft | 0 kts | 107° |
| 2026-04-24 02:50 | 37.98224 | 69.80583 | 2203 ft | 1 kts | 107° |
| 2026-04-24 02:50 | 37.98225 | 69.80595 | 2204 ft | 2 kts | 72° |
| 2026-04-24 02:50 | 37.98241 | 69.80597 | 2202 ft | 3 kts | 345° |
| 2026-04-24 02:50 | 37.98254 | 69.80577 | 2205 ft | 4 kts | 299° |
| 2026-04-24 02:51 | 37.98274 | 69.80548 | 2206 ft | 5 kts | 332° |
| 2026-04-24 02:51 | 37.98305 | 69.80552 | 2207 ft | 5 kts | 19° |
| 2026-04-24 02:51 | 37.98336 | 69.80565 | 2209 ft | 5 kts | 18° |
| 2026-04-24 02:51 | 37.98372 | 69.80577 | 2211 ft | 6 kts | 14° |
| 2026-04-24 02:52 | 37.98416 | 69.80592 | 2213 ft | 7 kts | 16° |
| 2026-04-24 02:52 | 37.98463 | 69.80610 | 2214 ft | 7 kts | 17° |
| 2026-04-24 02:52 | 37.98520 | 69.80630 | 2216 ft | 11 kts | 15° |
| 2026-04-24 02:52 | 37.98610 | 69.80663 | 2219 ft | 16 kts | 16° |
| 2026-04-24 02:53 | 37.98732 | 69.80708 | 2227 ft | 20 kts | 16° |
| 2026-04-24 02:53 | 37.98858 | 69.80705 | 2236 ft | 14 kts | 334° |
| 2026-04-24 02:53 | 37.98874 | 69.80695 | 2236 ft | 0 kts | 331° |
| 2026-04-24 02:54 | 37.98886 | 69.80686 | 2237 ft | 4 kts | 331° |
| 2026-04-24 02:54 | 37.98918 | 69.80663 | 2238 ft | 7 kts | 329° |
| 2026-04-24 02:54 | 37.98968 | 69.80630 | 2240 ft | 9 kts | 339° |
| 2026-04-24 02:54 | 37.99052 | 69.80641 | 2244 ft | 15 kts | 14° |
| 2026-04-24 02:55 | 37.99172 | 69.80684 | 2250 ft | 21 kts | 16° |
| 2026-04-24 02:55 | 37.99327 | 69.80740 | 2258 ft | 25 kts | 16° |
| 2026-04-24 02:55 | 37.99512 | 69.80806 | 2269 ft | 29 kts | 15° |
| 2026-04-24 02:55 | 37.99704 | 69.80876 | 2279 ft | 28 kts | 16° |
| 2026-04-24 02:56 | 37.99886 | 69.80942 | 2287 ft | 26 kts | 16° |
| 2026-04-24 02:56 | 38.00042 | 69.80971 | 2300 ft | 10 kts | 345° |
| 2026-04-24 02:56 | 38.00112 | 69.81001 | 2303 ft | 12 kts | 64° |
| 2026-04-24 02:56 | 38.00093 | 69.81024 | 2300 ft | 6 kts | 194° |
| 2026-04-24 02:57 | 38.00024 | 69.80987 | 2297 ft | 14 kts | 203° |
| 2026-04-24 02:57 | 37.99898 | 69.80938 | 2299 ft | 25 kts | 193° |
| 2026-04-24 02:57 | 37.99622 | 69.80847 | 2275 ft | 73 kts | 195° |
| 2026-04-24 02:57 | 37.99188 | 69.80690 | 2251 ft | 122 kts | 197° |
| 2026-04-24 02:58 | 37.97733 | 69.80173 | 2188 ft | 202 kts | 195° |
| 2026-04-24 02:58 | 37.96299 | 69.79658 | 2685 ft | 220 kts | 196° |
| 2026-04-24 02:58 | 37.94786 | 69.79097 | 3312 ft | 231 kts | 196° |
| 2026-04-24 02:58 | 37.93767 | 69.78719 | 4052 ft | 217 kts | 195° |
| 2026-04-24 02:59 | 37.92372 | 69.78205 | 5083 ft | 208 kts | 195° |
| 2026-04-24 02:59 | 37.90940 | 69.77687 | 5583 ft | 226 kts | 195° |
| 2026-04-24 02:59 | 37.89356 | 69.77116 | 5858 ft | 250 kts | 195° |
| 2026-04-24 02:59 | 37.87641 | 69.76497 | 6553 ft | 256 kts | 194° |
| 2026-04-24 03:00 | 37.85926 | 69.75880 | 7352 ft | 256 kts | 195° |
| 2026-04-24 03:00 | 37.84231 | 69.75270 | 8122 ft | 257 kts | 195° |
| 2026-04-24 03:00 | 37.82507 | 69.74652 | 8856 ft | 259 kts | 195° |
| 2026-04-24 03:00 | 37.80745 | 69.74022 | 9591 ft | 260 kts | 195° |
| 2026-04-24 03:01 | 37.79059 | 69.73229 | 10211 ft | 265 kts | 213° |
| 2026-04-24 03:01 | 37.77720 | 69.71511 | 10469 ft | 290 kts | 240° |
| 2026-04-24 03:01 | 37.77086 | 69.68990 | 10683 ft | 317 kts | 264° |
| 2026-04-24 03:01 | 37.77320 | 69.66124 | 10882 ft | 344 kts | 286° |
| 2026-04-24 03:02 | 37.78437 | 69.63366 | 11212 ft | 364 kts | 307° |
| 2026-04-24 03:02 | 37.80308 | 69.61155 | 11907 ft | 372 kts | 326° |
| 2026-04-24 03:02 | 37.82666 | 69.59792 | 12742 ft | 376 kts | 340° |
| 2026-04-24 03:02 | 37.85191 | 69.58867 | 13532 ft | 380 kts | 344° |
| 2026-04-24 03:03 | 37.87775 | 69.58046 | 14187 ft | 384 kts | 344° |
| 2026-04-24 03:03 | 37.90382 | 69.57201 | 14824 ft | 388 kts | 343° |
| 2026-04-24 03:03 | 37.92993 | 69.56295 | 15459 ft | 391 kts | 342° |
| 2026-04-24 03:03 | 37.95604 | 69.55330 | 16085 ft | 393 kts | 341° |
| 2026-04-24 03:04 | 37.98228 | 69.54317 | 16707 ft | 396 kts | 340° |
| 2026-04-24 03:04 | 38.00836 | 69.53282 | 17288 ft | 399 kts | 339° |
| 2026-04-24 03:04 | 38.03524 | 69.52199 | 17873 ft | 402 kts | 339° |
| 2026-04-24 03:04 | 38.06192 | 69.51116 | 18422 ft | 405 kts | 339° |
| 2026-04-24 03:05 | 38.08861 | 69.50030 | 18881 ft | 408 kts | 339° |
| 2026-04-24 03:05 | 38.11571 | 69.48926 | 19358 ft | 411 kts | 339° |
| 2026-04-24 03:05 | 38.14311 | 69.47810 | 19847 ft | 413 kts | 338° |
| 2026-04-24 03:05 | 38.17081 | 69.46680 | 20027 ft | 424 kts | 338° |
| 2026-04-24 03:06 | 38.19941 | 69.45510 | 20045 ft | 438 kts | 339° |
| 2026-04-24 03:06 | 38.22897 | 69.44302 | 20051 ft | 451 kts | 339° |
| 2026-04-24 03:06 | 38.25914 | 69.43069 | 20061 ft | 463 kts | 339° |
| 2026-04-24 03:06 | 38.29015 | 69.41803 | 20063 ft | 474 kts | 339° |
| 2026-04-24 03:07 | 38.32194 | 69.40505 | 20064 ft | 484 kts | 339° |
| 2026-04-24 03:07 | 38.35392 | 69.39197 | 20066 ft | 492 kts | 339° |
| 2026-04-24 03:07 | 38.38680 | 69.37853 | 20075 ft | 500 kts | 339° |
| 2026-04-24 03:07 | 38.42019 | 69.36485 | 20073 ft | 506 kts | 339° |
| 2026-04-24 03:08 | 38.45420 | 69.35091 | 20077 ft | 510 kts | 339° |
| 2026-04-24 03:08 | 38.52160 | 69.32243 | 20074 ft | 513 kts | 334° |
| 2026-04-24 03:08 | 38.55205 | 69.29935 | 20172 ft | 504 kts | 318° |
| 2026-04-24 03:09 | 38.57622 | 69.26806 | 20626 ft | 492 kts | 307° |
| 2026-04-24 03:09 | 38.59761 | 69.23430 | 21059 ft | 487 kts | 306° |
| 2026-04-24 03:09 | 38.61865 | 69.20047 | 21492 ft | 483 kts | 306° |
| 2026-04-24 03:09 | 38.63949 | 69.16713 | 22070 ft | 476 kts | 306° |
| 2026-04-24 03:10 | 38.66014 | 69.13449 | 22743 ft | 469 kts | 306° |
| 2026-04-24 03:10 | 38.68054 | 69.10258 | 23623 ft | 456 kts | 306° |
| 2026-04-24 03:10 | 38.70044 | 69.07166 | 24475 ft | 442 kts | 306° |
| 2026-04-24 03:10 | 38.71970 | 69.04179 | 25331 ft | 428 kts | 306° |
| 2026-04-24 03:11 | 38.73826 | 69.01292 | 26293 ft | 412 kts | 305° |
| 2026-04-24 03:11 | 38.75575 | 68.98570 | 27471 ft | 389 kts | 304° |
| 2026-04-24 03:11 | 38.77292 | 68.95888 | 28087 ft | 386 kts | 304° |
| 2026-04-24 03:12 | 38.80744 | 68.90474 | 28194 ft | 401 kts | 304° |
| 2026-04-24 03:12 | 38.82582 | 68.87735 | 28235 ft | 412 kts | 311° |
| 2026-04-24 03:12 | 38.84939 | 68.85516 | 28312 ft | 429 kts | 326° |
| 2026-04-24 03:12 | 38.87734 | 68.84045 | 28363 ft | 445 kts | 341° |
| 2026-04-24 03:13 | 38.90821 | 68.83397 | 28469 ft | 455 kts | 348° |
| 2026-04-24 03:13 | 38.97215 | 68.82533 | 28576 ft | 469 kts | 350° |
| 2026-04-24 03:14 | 39.03779 | 68.81691 | 28710 ft | 478 kts | 349° |
| 2026-04-24 03:14 | 39.07090 | 68.81236 | 28870 ft | 480 kts | 349° |
| 2026-04-24 03:14 | 39.10403 | 68.80765 | 29166 ft | 478 kts | 349° |
| 2026-04-24 03:14 | 39.13698 | 68.80285 | 29486 ft | 476 kts | 349° |
| 2026-04-24 03:15 | 39.16990 | 68.79798 | 29709 ft | 476 kts | 349° |
| 2026-04-24 03:15 | 39.20285 | 68.79306 | 29956 ft | 476 kts | 349° |
| 2026-04-24 03:15 | 39.23567 | 68.78815 | 30248 ft | 475 kts | 348° |
| 2026-04-24 03:15 | 39.26821 | 68.78328 | 30450 ft | 474 kts | 348° |
| 2026-04-24 03:16 | 39.30133 | 68.77832 | 30614 ft | 474 kts | 348° |
| 2026-04-24 03:16 | 39.33417 | 68.77340 | 30798 ft | 474 kts | 348° |
| 2026-04-24 03:16 | 39.36690 | 68.76851 | 31024 ft | 473 kts | 348° |
| 2026-04-24 03:16 | 39.39958 | 68.76363 | 31211 ft | 473 kts | 348° |
| 2026-04-24 03:17 | 39.43191 | 68.75878 | 31413 ft | 472 kts | 348° |
| 2026-04-24 03:17 | 39.46453 | 68.75390 | 31555 ft | 472 kts | 348° |
| 2026-04-24 03:17 | 39.49532 | 68.74928 | 31714 ft | 472 kts | 348° |
| 2026-04-24 03:17 | 39.51332 | 68.74657 | 31838 ft | 473 kts | 348° |
| 2026-04-24 03:18 | 39.54597 | 68.74166 | 32130 ft | 472 kts | 348° |
| 2026-04-24 03:18 | 39.57849 | 68.73677 | 32455 ft | 470 kts | 348° |
| 2026-04-24 03:18 | 39.61109 | 68.73188 | 32756 ft | 469 kts | 348° |
| 2026-04-24 03:18 | 39.64336 | 68.72703 | 32985 ft | 469 kts | 347° |
| 2026-04-24 03:19 | 39.67590 | 68.72211 | 33192 ft | 470 kts | 347° |
| 2026-04-24 03:19 | 39.70845 | 68.71718 | 33472 ft | 469 kts | 347° |
| 2026-04-24 03:19 | 39.74082 | 68.71230 | 33767 ft | 468 kts | 347° |
| 2026-04-24 03:19 | 39.77272 | 68.70748 | 34033 ft | 467 kts | 347° |
| 2026-04-24 03:20 | 39.80528 | 68.70254 | 34069 ft | 472 kts | 347° |
| 2026-04-24 03:20 | 39.87105 | 68.69251 | 34071 ft | 480 kts | 347° |
| 2026-04-24 03:21 | 39.93797 | 68.68233 | 34060 ft | 486 kts | 348° |
| 2026-04-24 03:21 | 40.00554 | 68.67206 | 34046 ft | 490 kts | 348° |
| 2026-04-24 03:22 | 40.07286 | 68.66184 | 34030 ft | 486 kts | 348° |
| 2026-04-24 03:22 | 40.10614 | 68.65683 | 34012 ft | 474 kts | 348° |
| 2026-04-24 03:22 | 40.13859 | 68.65194 | 34033 ft | 468 kts | 347° |
| 2026-04-24 03:23 | 40.20310 | 68.64205 | 34032 ft | 464 kts | 347° |
| 2026-04-24 03:23 | 40.26701 | 68.63219 | 34030 ft | 461 kts | 347° |
| 2026-04-24 03:24 | 40.33071 | 68.62237 | 34036 ft | 460 kts | 347° |
| 2026-04-24 03:24 | 40.38257 | 68.61438 | 34039 ft | 459 kts | 347° |
| 2026-04-24 03:25 | 40.44579 | 68.60462 | 34043 ft | 460 kts | 347° |
| 2026-04-24 03:25 | 40.50943 | 68.59478 | 34050 ft | 462 kts | 347° |
| 2026-04-24 03:26 | 40.57334 | 68.58488 | 34050 ft | 463 kts | 347° |
| 2026-04-24 03:26 | 40.63746 | 68.57494 | 34053 ft | 465 kts | 347° |
| 2026-04-24 03:27 | 40.70205 | 68.56490 | 34054 ft | 467 kts | 347° |
| 2026-04-24 03:27 | 40.76674 | 68.55483 | 34050 ft | 468 kts | 347° |
| 2026-04-24 03:28 | 40.83115 | 68.54479 | 34054 ft | 469 kts | 347° |
| 2026-04-24 03:28 | 40.89598 | 68.53466 | 34056 ft | 469 kts | 347° |
| 2026-04-24 03:29 | 40.96073 | 68.52452 | 34056 ft | 468 kts | 347° |
| 2026-04-24 03:29 | 41.02319 | 68.50506 | 34073 ft | 455 kts | 332° |
| 2026-04-24 03:30 | 41.07762 | 68.46492 | 34077 ft | 445 kts | 321° |
| 2026-04-24 03:30 | 41.12946 | 68.42003 | 34069 ft | 444 kts | 321° |
| 2026-04-24 03:31 | 41.18095 | 68.37574 | 34067 ft | 444 kts | 321° |
| 2026-04-24 03:31 | 41.23296 | 68.33140 | 34064 ft | 444 kts | 321° |
| 2026-04-24 03:32 | 41.28502 | 68.28712 | 34070 ft | 443 kts | 321° |
| 2026-04-24 03:32 | 41.33698 | 68.24283 | 34070 ft | 443 kts | 321° |
| 2026-04-24 03:33 | 41.38888 | 68.19849 | 34071 ft | 443 kts | 321° |
| 2026-04-24 03:33 | 41.44069 | 68.15413 | 34076 ft | 443 kts | 321° |
| 2026-04-24 03:34 | 41.49242 | 68.10976 | 34072 ft | 444 kts | 321° |
| 2026-04-24 03:34 | 41.54443 | 68.06506 | 34071 ft | 444 kts | 321° |
| 2026-04-24 03:35 | 41.59641 | 68.02029 | 34074 ft | 444 kts | 321° |
| 2026-04-24 03:35 | 41.64830 | 67.97544 | 34073 ft | 444 kts | 321° |
| 2026-04-24 03:36 | 41.70019 | 67.93046 | 34074 ft | 445 kts | 321° |
| 2026-04-24 03:36 | 41.75205 | 67.88543 | 34074 ft | 445 kts | 321° |
| 2026-04-24 03:37 | 41.80371 | 67.84049 | 34071 ft | 444 kts | 321° |
| 2026-04-24 03:37 | 41.85557 | 67.79528 | 34070 ft | 444 kts | 321° |
| 2026-04-24 03:38 | 41.90747 | 67.74996 | 34075 ft | 444 kts | 321° |
| 2026-04-24 03:38 | 41.95914 | 67.70474 | 34063 ft | 444 kts | 321° |
| 2026-04-24 03:39 | 42.01092 | 67.65933 | 34072 ft | 443 kts | 321° |
| 2026-04-24 03:39 | 42.06261 | 67.61392 | 34075 ft | 443 kts | 321° |
| 2026-04-24 03:40 | 42.11423 | 67.56848 | 34074 ft | 443 kts | 321° |
| 2026-04-24 03:40 | 42.16591 | 67.52289 | 34071 ft | 443 kts | 321° |
| 2026-04-24 03:41 | 42.21719 | 67.47758 | 34066 ft | 443 kts | 321° |
| 2026-04-24 03:41 | 42.26874 | 67.43193 | 34071 ft | 443 kts | 321° |
| 2026-04-24 03:42 | 42.32032 | 67.38616 | 34070 ft | 443 kts | 321° |
| 2026-04-24 03:42 | 42.37190 | 67.34030 | 34066 ft | 443 kts | 321° |
| 2026-04-24 03:43 | 42.42340 | 67.29442 | 34068 ft | 443 kts | 321° |
| 2026-04-24 03:43 | 42.47494 | 67.24842 | 34063 ft | 443 kts | 321° |
| 2026-04-24 03:44 | 42.52638 | 67.20240 | 34063 ft | 443 kts | 321° |
| 2026-04-24 03:44 | 42.57790 | 67.15623 | 34068 ft | 443 kts | 321° |
| 2026-04-24 03:45 | 42.62936 | 67.11002 | 34063 ft | 444 kts | 321° |
| 2026-04-24 03:45 | 42.67217 | 67.07150 | 34064 ft | 444 kts | 321° |
| 2026-04-24 03:46 | 42.72357 | 67.02517 | 34065 ft | 444 kts | 321° |
| 2026-04-24 03:46 | 42.77510 | 66.97863 | 34067 ft | 444 kts | 321° |
| 2026-04-24 03:47 | 42.82648 | 66.93213 | 34069 ft | 444 kts | 321° |
| 2026-04-24 03:47 | 42.87797 | 66.88542 | 34063 ft | 444 kts | 321° |
| 2026-04-24 03:48 | 42.92896 | 66.83909 | 34068 ft | 444 kts | 321° |
| 2026-04-24 03:48 | 42.98102 | 66.79329 | 34050 ft | 448 kts | 327° |
| 2026-04-24 03:49 | 43.04038 | 66.76448 | 34060 ft | 460 kts | 343° |
| 2026-04-24 03:49 | 43.10344 | 66.74883 | 34060 ft | 461 kts | 344° |
| 2026-04-24 03:50 | 43.16646 | 66.73320 | 34056 ft | 460 kts | 343° |
| 2026-04-24 03:50 | 43.22895 | 66.71678 | 34053 ft | 460 kts | 343° |
| 2026-04-24 03:51 | 43.29219 | 66.70001 | 34055 ft | 460 kts | 343° |
| 2026-04-24 03:51 | 43.35459 | 66.68340 | 34055 ft | 460 kts | 343° |
| 2026-04-24 03:52 | 43.41742 | 66.66665 | 34049 ft | 459 kts | 343° |
| 2026-04-24 03:52 | 43.48019 | 66.64987 | 34047 ft | 459 kts | 343° |
| 2026-04-24 03:53 | 43.54294 | 66.63307 | 34045 ft | 458 kts | 343° |
| 2026-04-24 03:53 | 43.60549 | 66.61628 | 34046 ft | 458 kts | 343° |
| 2026-04-24 03:54 | 43.66801 | 66.59947 | 34041 ft | 458 kts | 343° |
| 2026-04-24 03:54 | 43.73054 | 66.58262 | 34044 ft | 457 kts | 343° |
| 2026-04-24 03:55 | 43.79302 | 66.56574 | 34041 ft | 457 kts | 343° |
| 2026-04-24 03:55 | 43.85506 | 66.54895 | 34042 ft | 457 kts | 343° |
| 2026-04-24 03:56 | 43.91753 | 66.53200 | 34041 ft | 457 kts | 343° |
| 2026-04-24 03:56 | 43.97996 | 66.51503 | 34039 ft | 457 kts | 343° |
| 2026-04-24 03:57 | 44.04237 | 66.49803 | 34039 ft | 457 kts | 343° |
| 2026-04-24 03:57 | 44.10497 | 66.48094 | 34034 ft | 457 kts | 343° |
| 2026-04-24 03:58 | 44.16739 | 66.46386 | 34030 ft | 458 kts | 343° |
| 2026-04-24 03:58 | 44.22989 | 66.44673 | 34029 ft | 458 kts | 343° |
| 2026-04-24 03:59 | 44.29202 | 66.42966 | 34030 ft | 458 kts | 343° |
| 2026-04-24 03:59 | 44.35483 | 66.41429 | 34034 ft | 459 kts | 346° |
| 2026-04-24 04:00 | 44.41816 | 66.40086 | 34027 ft | 459 kts | 346° |
| 2026-04-24 04:00 | 44.48130 | 66.38739 | 34032 ft | 459 kts | 346° |
| 2026-04-24 04:01 | 44.54438 | 66.37356 | 34025 ft | 459 kts | 346° |
| 2026-04-24 04:01 | 44.60737 | 66.35957 | 34018 ft | 458 kts | 346° |
| 2026-04-24 04:02 | 44.67030 | 66.34551 | 34024 ft | 457 kts | 346° |
| 2026-04-24 04:02 | 44.73266 | 66.33158 | 34039 ft | 457 kts | 346° |
| 2026-04-24 04:03 | 44.79545 | 66.31754 | 34034 ft | 456 kts | 346° |
| 2026-04-24 04:03 | 44.85818 | 66.30347 | 34020 ft | 456 kts | 346° |
| 2026-04-24 04:04 | 44.92079 | 66.28940 | 34025 ft | 456 kts | 346° |
| 2026-04-24 04:04 | 44.98321 | 66.27533 | 34026 ft | 456 kts | 346° |
| 2026-04-24 04:05 | 45.04586 | 66.26119 | 34029 ft | 456 kts | 346° |
| 2026-04-24 04:05 | 45.10856 | 66.24700 | 34026 ft | 457 kts | 346° |
| 2026-04-24 04:06 | 45.17147 | 66.23273 | 34026 ft | 457 kts | 346° |
| 2026-04-24 04:06 | 45.23426 | 66.21846 | 34030 ft | 458 kts | 346° |
| 2026-04-24 04:07 | 45.29724 | 66.20411 | 34029 ft | 458 kts | 346° |
| 2026-04-24 04:07 | 45.36015 | 66.18975 | 34030 ft | 459 kts | 346° |
| 2026-04-24 04:08 | 45.42323 | 66.17531 | 34026 ft | 459 kts | 346° |
| 2026-04-24 04:08 | 45.48599 | 66.16092 | 34028 ft | 459 kts | 346° |
| 2026-04-24 04:09 | 45.54919 | 66.14639 | 34022 ft | 460 kts | 346° |
| 2026-04-24 04:09 | 45.61240 | 66.13183 | 34026 ft | 460 kts | 346° |
| 2026-04-24 04:10 | 45.67561 | 66.11724 | 34024 ft | 460 kts | 346° |
| 2026-04-24 04:10 | 45.73885 | 66.10260 | 34027 ft | 460 kts | 346° |
| 2026-04-24 04:11 | 45.83352 | 66.08063 | 34024 ft | 460 kts | 346° |
| 2026-04-24 04:11 | 45.89683 | 66.06589 | 34025 ft | 460 kts | 346° |
| 2026-04-24 04:12 | 45.95961 | 66.05124 | 34026 ft | 460 kts | 346° |
| 2026-04-24 04:12 | 46.02285 | 66.03645 | 34019 ft | 460 kts | 346° |
| 2026-04-24 04:13 | 46.08608 | 66.02168 | 34028 ft | 460 kts | 346° |
| 2026-04-24 04:13 | 46.14930 | 66.00693 | 34018 ft | 460 kts | 346° |
| 2026-04-24 04:14 | 46.21241 | 65.99216 | 34021 ft | 460 kts | 346° |
| 2026-04-24 04:14 | 46.27563 | 65.97732 | 34023 ft | 460 kts | 346° |
| 2026-04-24 04:15 | 46.33890 | 65.96244 | 34023 ft | 461 kts | 346° |
| 2026-04-24 04:15 | 46.40226 | 65.94750 | 34026 ft | 461 kts | 346° |
| 2026-04-24 04:16 | 46.46568 | 65.93250 | 34028 ft | 461 kts | 346° |
| 2026-04-24 04:16 | 46.52865 | 65.91758 | 34027 ft | 461 kts | 346° |
| 2026-04-24 04:17 | 46.59214 | 65.90250 | 34027 ft | 462 kts | 346° |
| 2026-04-24 04:17 | 46.65561 | 65.88739 | 34029 ft | 462 kts | 346° |
| 2026-04-24 04:18 | 46.71915 | 65.87223 | 34022 ft | 462 kts | 346° |
| 2026-04-24 04:18 | 46.78213 | 65.85498 | 34027 ft | 460 kts | 343° |
| 2026-04-24 04:19 | 46.84402 | 65.83408 | 34028 ft | 459 kts | 342° |
| 2026-04-24 04:19 | 46.90629 | 65.81262 | 34029 ft | 459 kts | 342° |
| 2026-04-24 04:20 | 46.96852 | 65.79156 | 34030 ft | 459 kts | 343° |
| 2026-04-24 04:20 | 47.03088 | 65.77070 | 34024 ft | 459 kts | 343° |
| 2026-04-24 04:21 | 47.09333 | 65.74984 | 34028 ft | 459 kts | 343° |
| 2026-04-24 04:21 | 47.15565 | 65.72897 | 34028 ft | 459 kts | 343° |
| 2026-04-24 04:22 | 47.21799 | 65.70803 | 34029 ft | 460 kts | 343° |
| 2026-04-24 04:22 | 47.28042 | 65.68700 | 34028 ft | 460 kts | 343° |
| 2026-04-24 04:23 | 47.34280 | 65.66594 | 34027 ft | 460 kts | 343° |
| 2026-04-24 04:23 | 47.40478 | 65.64496 | 34032 ft | 460 kts | 343° |
| 2026-04-24 04:24 | 47.46725 | 65.62377 | 34023 ft | 460 kts | 343° |
| 2026-04-24 04:24 | 47.52970 | 65.60253 | 34026 ft | 461 kts | 343° |
| 2026-04-24 04:25 | 47.59234 | 65.58117 | 34020 ft | 461 kts | 343° |
| 2026-04-24 04:25 | 47.65483 | 65.55982 | 34020 ft | 461 kts | 343° |
| 2026-04-24 04:26 | 47.71727 | 65.53842 | 34013 ft | 461 kts | 343° |
| 2026-04-24 04:26 | 47.77983 | 65.51694 | 34020 ft | 461 kts | 343° |
| 2026-04-24 04:27 | 47.84182 | 65.49560 | 34018 ft | 461 kts | 343° |
| 2026-04-24 04:27 | 47.90445 | 65.47398 | 34016 ft | 461 kts | 343° |
| 2026-04-24 04:28 | 47.96701 | 65.45233 | 34016 ft | 461 kts | 343° |
| 2026-04-24 04:28 | 48.02950 | 65.43065 | 34020 ft | 461 kts | 342° |
| 2026-04-24 04:29 | 48.09201 | 65.40892 | 34016 ft | 461 kts | 342° |
| 2026-04-24 04:29 | 48.15406 | 65.38729 | 34018 ft | 461 kts | 342° |
| 2026-04-24 04:30 | 48.21654 | 65.36545 | 34015 ft | 461 kts | 342° |
| 2026-04-24 04:30 | 48.27927 | 65.34348 | 34021 ft | 461 kts | 342° |
| 2026-04-24 04:31 | 48.34182 | 65.32151 | 34014 ft | 462 kts | 342° |
| 2026-04-24 04:31 | 48.40432 | 65.29950 | 34012 ft | 462 kts | 342° |
| 2026-04-24 04:32 | 48.46691 | 65.27741 | 34010 ft | 462 kts | 342° |
| 2026-04-24 04:32 | 48.52959 | 65.25522 | 34012 ft | 462 kts | 342° |
| 2026-04-24 04:33 | 48.59175 | 65.23317 | 34015 ft | 462 kts | 342° |
| 2026-04-24 04:33 | 48.65436 | 65.21089 | 34015 ft | 462 kts | 342° |
| 2026-04-24 04:34 | 48.71709 | 65.18852 | 34009 ft | 463 kts | 342° |
| 2026-04-24 04:34 | 48.77974 | 65.16612 | 34023 ft | 464 kts | 342° |
| 2026-04-24 04:35 | 48.84267 | 65.14356 | 34011 ft | 465 kts | 342° |
| 2026-04-24 04:35 | 48.88440 | 65.12857 | 34020 ft | 465 kts | 342° |
| 2026-04-24 04:36 | 48.95834 | 65.10195 | 34006 ft | 466 kts | 342° |
| 2026-04-24 04:36 | 49.02157 | 65.07911 | 34011 ft | 466 kts | 342° |
| 2026-04-24 04:37 | 49.08466 | 65.05627 | 34011 ft | 467 kts | 342° |
| 2026-04-24 04:37 | 49.14788 | 65.03332 | 34010 ft | 467 kts | 341° |
| 2026-04-24 04:38 | 49.21092 | 65.01038 | 34005 ft | 468 kts | 341° |
| 2026-04-24 04:38 | 49.27474 | 64.98708 | 34009 ft | 468 kts | 341° |
| 2026-04-24 04:39 | 49.33741 | 64.96416 | 34002 ft | 468 kts | 341° |
| 2026-04-24 04:39 | 49.40108 | 64.94187 | 34005 ft | 469 kts | 342° |
| 2026-04-24 04:40 | 49.46499 | 64.92063 | 34005 ft | 469 kts | 342° |
| 2026-04-24 04:40 | 49.52874 | 64.89933 | 34010 ft | 469 kts | 342° |
| 2026-04-24 04:41 | 49.59265 | 64.87773 | 34002 ft | 470 kts | 342° |
| 2026-04-24 04:41 | 49.65648 | 64.85602 | 34001 ft | 470 kts | 342° |
| 2026-04-24 04:42 | 49.72032 | 64.83424 | 34001 ft | 470 kts | 342° |
| 2026-04-24 04:42 | 49.78418 | 64.81241 | 33997 ft | 470 kts | 342° |
| 2026-04-24 04:43 | 49.84774 | 64.79062 | 34000 ft | 470 kts | 342° |
| 2026-04-24 04:43 | 49.90135 | 64.77220 | 34001 ft | 470 kts | 342° |
| 2026-04-24 04:44 | 49.97567 | 64.74658 | 34023 ft | 472 kts | 342° |
| 2026-04-24 04:44 | 50.00782 | 64.73548 | 34224 ft | 472 kts | 342° |
| 2026-04-24 04:44 | 50.03972 | 64.72446 | 34481 ft | 470 kts | 342° |
| 2026-04-24 04:45 | 50.07149 | 64.71346 | 34671 ft | 469 kts | 341° |
| 2026-04-24 04:45 | 50.10339 | 64.70239 | 34826 ft | 470 kts | 341° |
| 2026-04-24 04:45 | 50.13583 | 64.69113 | 34984 ft | 471 kts | 341° |
| 2026-04-24 04:45 | 50.16771 | 64.68007 | 35175 ft | 471 kts | 341° |
| 2026-04-24 04:46 | 50.19935 | 64.66910 | 35363 ft | 470 kts | 341° |
| 2026-04-24 04:46 | 50.23128 | 64.65801 | 35530 ft | 470 kts | 341° |
| 2026-04-24 04:46 | 50.26060 | 64.64781 | 35669 ft | 471 kts | 341° |
| 2026-04-24 04:46 | 50.27782 | 64.64181 | 35752 ft | 471 kts | 341° |
| 2026-04-24 04:47 | 50.30969 | 64.63069 | 35934 ft | 471 kts | 341° |
| 2026-04-24 04:47 | 50.34175 | 64.61950 | 35986 ft | 472 kts | 341° |
| 2026-04-24 04:47 | 50.39535 | 64.60072 | 36002 ft | 473 kts | 341° |
| 2026-04-24 04:48 | 50.46980 | 64.57462 | 35992 ft | 471 kts | 341° |
| 2026-04-24 04:48 | 50.53372 | 64.55214 | 35996 ft | 469 kts | 341° |
| 2026-04-24 04:49 | 50.59718 | 64.52974 | 35996 ft | 467 kts | 341° |
| 2026-04-24 04:49 | 50.66058 | 64.50729 | 35999 ft | 466 kts | 341° |
| 2026-04-24 04:50 | 50.72410 | 64.48474 | 36000 ft | 466 kts | 341° |
| 2026-04-24 04:50 | 50.77670 | 64.46601 | 36004 ft | 467 kts | 341° |
| 2026-04-24 04:51 | 50.85049 | 64.43967 | 36000 ft | 468 kts | 341° |
| 2026-04-24 04:51 | 50.91412 | 64.41690 | 36000 ft | 469 kts | 341° |
| 2026-04-24 04:52 | 50.97821 | 64.39389 | 36006 ft | 470 kts | 341° |
| 2026-04-24 04:52 | 51.04164 | 64.37106 | 35998 ft | 471 kts | 341° |
| 2026-04-24 04:53 | 51.10556 | 64.34800 | 35998 ft | 471 kts | 341° |
| 2026-04-24 04:53 | 51.15924 | 64.32857 | 35988 ft | 472 kts | 341° |
| 2026-04-24 04:54 | 51.23360 | 64.30159 | 35988 ft | 472 kts | 341° |
| 2026-04-24 04:54 | 51.29773 | 64.27825 | 35986 ft | 472 kts | 341° |
| 2026-04-24 04:55 | 51.36166 | 64.25491 | 35987 ft | 471 kts | 341° |
| 2026-04-24 04:55 | 51.42561 | 64.23149 | 35987 ft | 470 kts | 341° |
| 2026-04-24 04:56 | 51.48932 | 64.20810 | 35986 ft | 470 kts | 341° |
| 2026-04-24 04:56 | 51.55308 | 64.18462 | 35987 ft | 469 kts | 341° |
| 2026-04-24 04:57 | 51.61673 | 64.16112 | 35981 ft | 469 kts | 341° |
| 2026-04-24 04:57 | 51.67987 | 64.13774 | 35983 ft | 468 kts | 341° |
| 2026-04-24 04:58 | 51.74343 | 64.11412 | 35986 ft | 468 kts | 340° |
| 2026-04-24 04:58 | 51.80679 | 64.09051 | 35985 ft | 467 kts | 340° |
| 2026-04-24 04:59 | 51.87017 | 64.06683 | 35983 ft | 467 kts | 340° |
| 2026-04-24 04:59 | 51.93353 | 64.04308 | 35985 ft | 468 kts | 340° |
| 2026-04-24 05:00 | 51.99702 | 64.01922 | 35984 ft | 468 kts | 340° |
| 2026-04-24 05:00 | 52.06057 | 63.99527 | 35981 ft | 468 kts | 340° |
| 2026-04-24 05:01 | 52.12399 | 63.97129 | 35981 ft | 469 kts | 340° |
| 2026-04-24 05:01 | 52.18765 | 63.94715 | 35976 ft | 469 kts | 340° |
| 2026-04-24 05:02 | 52.25127 | 63.92298 | 35978 ft | 470 kts | 340° |
| 2026-04-24 05:02 | 52.31502 | 63.89892 | 35974 ft | 470 kts | 340° |
| 2026-04-24 05:03 | 52.37847 | 63.87499 | 35977 ft | 470 kts | 340° |
| 2026-04-24 05:03 | 52.44222 | 63.85085 | 35969 ft | 471 kts | 340° |
| 2026-04-24 05:04 | 52.50606 | 63.82658 | 35959 ft | 471 kts | 340° |
| 2026-04-24 05:04 | 52.56987 | 63.80224 | 35965 ft | 470 kts | 340° |
| 2026-04-24 05:05 | 52.63371 | 63.77782 | 35963 ft | 470 kts | 340° |
| 2026-04-24 05:05 | 52.69738 | 63.75338 | 35957 ft | 470 kts | 340° |
| 2026-04-24 05:06 | 52.76111 | 63.72886 | 35950 ft | 470 kts | 340° |
| 2026-04-24 05:06 | 52.82484 | 63.70425 | 35954 ft | 470 kts | 340° |
| 2026-04-24 05:07 | 52.88810 | 63.67976 | 35948 ft | 469 kts | 340° |
| 2026-04-24 05:07 | 52.93061 | 63.66325 | 35945 ft | 469 kts | 340° |
| 2026-04-24 05:08 | 53.01518 | 63.63033 | 35941 ft | 469 kts | 340° |
| 2026-04-24 05:08 | 53.07868 | 63.60551 | 35943 ft | 468 kts | 340° |
| 2026-04-24 05:09 | 53.14217 | 63.58063 | 35944 ft | 468 kts | 340° |
| 2026-04-24 05:09 | 53.17371 | 63.56754 | 34907 ft | 465 kts | 337° |
| 2026-04-24 05:09 | 53.20354 | 63.54799 | 35018 ft | 457 kts | 333° |
| 2026-04-24 05:10 | 53.23141 | 63.52319 | 35234 ft | 451 kts | 330° |
| 2026-04-24 05:10 | 53.25853 | 63.49717 | 35475 ft | 448 kts | 329° |
| 2026-04-24 05:10 | 53.28539 | 63.47078 | 35700 ft | 446 kts | 329° |
| 2026-04-24 05:10 | 53.29438 | 63.46191 | 35752 ft | 446 kts | 329° |
| 2026-04-24 05:11 | 53.33891 | 63.41819 | 35916 ft | 447 kts | 329° |
| 2026-04-24 05:11 | 53.36594 | 63.39188 | 35971 ft | 449 kts | 329° |
| 2026-04-24 05:11 | 53.42036 | 63.33923 | 35999 ft | 455 kts | 329° |
| 2026-04-24 05:12 | 53.47549 | 63.28598 | 36010 ft | 460 kts | 329° |
| 2026-04-24 05:12 | 53.53118 | 63.23205 | 36006 ft | 463 kts | 329° |
| 2026-04-24 05:13 | 53.61511 | 63.15039 | 35995 ft | 463 kts | 329° |
| 2026-04-24 05:14 | 53.67008 | 63.09670 | 35991 ft | 455 kts | 329° |
| 2026-04-24 05:14 | 53.72470 | 63.04319 | 36003 ft | 454 kts | 329° |
| 2026-04-24 05:15 | 53.77922 | 62.98960 | 36001 ft | 453 kts | 329° |
| 2026-04-24 05:15 | 53.83386 | 62.93575 | 36000 ft | 453 kts | 329° |
| 2026-04-24 05:16 | 53.88837 | 62.88184 | 36002 ft | 454 kts | 329° |
| 2026-04-24 05:16 | 53.94175 | 62.82890 | 36003 ft | 455 kts | 329° |
| 2026-04-24 05:17 | 53.99638 | 62.77455 | 36003 ft | 456 kts | 329° |
| 2026-04-24 05:17 | 54.05114 | 62.71992 | 36002 ft | 457 kts | 329° |
| 2026-04-24 05:18 | 54.10613 | 62.66487 | 36002 ft | 458 kts | 329° |
| 2026-04-24 05:18 | 54.16074 | 62.60980 | 36002 ft | 459 kts | 329° |
| 2026-04-24 05:19 | 54.21572 | 62.55412 | 36004 ft | 460 kts | 329° |
| 2026-04-24 05:19 | 54.27076 | 62.49822 | 36002 ft | 460 kts | 329° |
| 2026-04-24 05:20 | 54.31656 | 62.45159 | 35998 ft | 460 kts | 329° |
| 2026-04-24 05:20 | 54.37158 | 62.39540 | 36004 ft | 460 kts | 329° |
| 2026-04-24 05:21 | 54.42651 | 62.33916 | 35998 ft | 459 kts | 329° |
| 2026-04-24 05:21 | 54.48194 | 62.28456 | 35999 ft | 459 kts | 332° |
| 2026-04-24 05:22 | 54.53854 | 62.23392 | 36000 ft | 458 kts | 332° |
| 2026-04-24 05:22 | 54.59498 | 62.18314 | 36003 ft | 458 kts | 332° |
| 2026-04-24 05:23 | 54.65127 | 62.13166 | 35999 ft | 457 kts | 332° |
| 2026-04-24 05:23 | 54.70739 | 62.08007 | 36000 ft | 457 kts | 332° |
| 2026-04-24 05:24 | 54.76341 | 62.02839 | 35999 ft | 456 kts | 332° |
| 2026-04-24 05:24 | 54.81942 | 61.97656 | 36002 ft | 456 kts | 331° |
| 2026-04-24 05:25 | 54.87538 | 61.92461 | 36001 ft | 456 kts | 331° |
| 2026-04-24 05:25 | 54.93145 | 61.87239 | 36004 ft | 456 kts | 331° |
| 2026-04-24 05:26 | 54.98746 | 61.82008 | 35998 ft | 457 kts | 331° |
| 2026-04-24 05:26 | 55.04340 | 61.76764 | 36000 ft | 457 kts | 331° |
| 2026-04-24 05:27 | 55.09936 | 61.71497 | 35999 ft | 457 kts | 331° |
| 2026-04-24 05:27 | 55.15493 | 61.66248 | 36006 ft | 457 kts | 331° |
| 2026-04-24 05:28 | 55.21101 | 61.60935 | 35999 ft | 457 kts | 331° |
| 2026-04-24 05:28 | 55.26697 | 61.55618 | 36001 ft | 458 kts | 331° |
| 2026-04-24 05:29 | 55.32513 | 61.51094 | 35997 ft | 458 kts | 345° |
| 2026-04-24 05:29 | 55.38774 | 61.48930 | 36001 ft | 458 kts | 350° |
| 2026-04-24 05:30 | 55.45048 | 61.47019 | 36001 ft | 459 kts | 349° |
| 2026-04-24 05:30 | 55.51335 | 61.45015 | 35997 ft | 459 kts | 349° |
| 2026-04-24 05:31 | 55.57611 | 61.42945 | 36001 ft | 459 kts | 349° |
| 2026-04-24 05:31 | 55.63887 | 61.40854 | 36005 ft | 459 kts | 349° |
| 2026-04-24 05:32 | 55.70171 | 61.38757 | 36004 ft | 459 kts | 349° |
| 2026-04-24 05:32 | 55.76408 | 61.36671 | 36004 ft | 459 kts | 349° |
| 2026-04-24 05:33 | 55.82688 | 61.34565 | 36005 ft | 459 kts | 349° |
| 2026-04-24 05:33 | 55.88968 | 61.32452 | 36003 ft | 459 kts | 349° |
| 2026-04-24 05:34 | 55.98105 | 61.27469 | 36000 ft | 458 kts | 339° |
| 2026-04-24 05:34 | 56.04096 | 61.23543 | 36002 ft | 458 kts | 340° |
| 2026-04-24 05:35 | 56.10096 | 61.19708 | 36001 ft | 458 kts | 340° |
| 2026-04-24 05:35 | 56.16114 | 61.15917 | 36000 ft | 458 kts | 340° |
| 2026-04-24 05:36 | 56.22139 | 61.12118 | 36001 ft | 458 kts | 340° |
| 2026-04-24 05:36 | 56.28149 | 61.08310 | 36002 ft | 458 kts | 340° |
| 2026-04-24 05:37 | 56.34111 | 61.04450 | 35998 ft | 458 kts | 335° |
| 2026-04-24 05:37 | 56.36813 | 61.01458 | 36005 ft | 456 kts | 319° |
| 2026-04-24 05:37 | 56.39004 | 60.97346 | 35994 ft | 455 kts | 305° |
| 2026-04-24 05:38 | 56.40561 | 60.92399 | 36015 ft | 453 kts | 294° |
| 2026-04-24 05:38 | 56.41433 | 60.88889 | 36011 ft | 453 kts | 293° |
| 2026-04-24 05:39 | 56.42607 | 60.84020 | 36007 ft | 454 kts | 293° |
| 2026-04-24 05:39 | 56.45160 | 60.73562 | 36000 ft | 455 kts | 294° |
| 2026-04-24 05:40 | 56.47784 | 60.63120 | 35998 ft | 455 kts | 294° |
| 2026-04-24 05:41 | 56.50054 | 60.54075 | 36003 ft | 456 kts | 293° |
| 2026-04-24 05:41 | 56.52456 | 60.43406 | 36000 ft | 456 kts | 291° |
| 2026-04-24 05:42 | 56.54914 | 60.32801 | 36002 ft | 457 kts | 294° |
| 2026-04-24 05:42 | 56.57550 | 60.22327 | 36004 ft | 457 kts | 294° |
| 2026-04-24 05:43 | 56.60160 | 60.11809 | 35996 ft | 457 kts | 294° |
| 2026-04-24 05:43 | 56.62721 | 60.01315 | 36001 ft | 457 kts | 293° |
| 2026-04-24 05:44 | 56.65282 | 59.90734 | 36001 ft | 457 kts | 293° |
| 2026-04-24 05:44 | 56.67806 | 59.80133 | 36003 ft | 457 kts | 293° |
| 2026-04-24 05:45 | 56.70318 | 59.69513 | 36001 ft | 457 kts | 293° |
| 2026-04-24 05:45 | 56.72826 | 59.58873 | 36001 ft | 456 kts | 293° |
| 2026-04-24 05:46 | 56.75321 | 59.48244 | 36000 ft | 456 kts | 292° |
| 2026-04-24 05:46 | 56.77805 | 59.37608 | 35999 ft | 456 kts | 292° |
| 2026-04-24 05:47 | 56.80280 | 59.26961 | 36000 ft | 456 kts | 292° |
| 2026-04-24 05:47 | 56.82746 | 59.16301 | 35999 ft | 455 kts | 292° |
| 2026-04-24 05:48 | 56.85424 | 59.05905 | 35992 ft | 456 kts | 302° |
| 2026-04-24 05:48 | 56.89367 | 58.96853 | 36002 ft | 455 kts | 311° |
| 2026-04-24 05:49 | 56.93557 | 58.88146 | 35998 ft | 456 kts | 311° |
| 2026-04-24 05:49 | 56.97714 | 58.79383 | 35999 ft | 456 kts | 310° |
| 2026-04-24 05:50 | 57.01840 | 58.70546 | 36005 ft | 456 kts | 310° |
| 2026-04-24 05:50 | 57.05961 | 58.61655 | 36001 ft | 456 kts | 310° |
| 2026-04-24 05:51 | 57.10044 | 58.52814 | 36005 ft | 456 kts | 310° |
| 2026-04-24 05:51 | 57.14152 | 58.43889 | 36002 ft | 456 kts | 310° |
| 2026-04-24 05:52 | 57.18243 | 58.34970 | 36000 ft | 457 kts | 310° |
| 2026-04-24 05:52 | 57.19815 | 58.31534 | 36000 ft | 457 kts | 310° |
| 2026-04-24 05:53 | 57.23910 | 58.22561 | 35999 ft | 457 kts | 309° |
| 2026-04-24 05:53 | 57.27999 | 58.13571 | 36003 ft | 457 kts | 309° |
| 2026-04-24 05:54 | 57.32060 | 58.04608 | 36003 ft | 457 kts | 309° |
| 2026-04-24 05:54 | 57.36142 | 57.95566 | 36003 ft | 457 kts | 309° |
| 2026-04-24 05:55 | 57.40213 | 57.86512 | 36005 ft | 457 kts | 309° |
| 2026-04-24 05:55 | 57.44280 | 57.77435 | 35998 ft | 457 kts | 309° |
| 2026-04-24 05:56 | 57.48327 | 57.68307 | 36001 ft | 457 kts | 306° |
| 2026-04-24 05:56 | 57.51518 | 57.58140 | 36006 ft | 456 kts | 296° |
| 2026-04-24 05:57 | 57.54377 | 57.47648 | 35999 ft | 456 kts | 297° |
| 2026-04-24 05:57 | 57.57309 | 57.37160 | 35996 ft | 456 kts | 296° |
| 2026-04-24 05:58 | 57.60130 | 57.26578 | 36001 ft | 456 kts | 296° |
| 2026-04-24 05:58 | 57.62921 | 57.15947 | 36004 ft | 456 kts | 296° |
| 2026-04-24 05:59 | 57.65716 | 57.05309 | 36000 ft | 456 kts | 296° |
| 2026-04-24 05:59 | 57.68510 | 56.94669 | 36000 ft | 456 kts | 296° |
| 2026-04-24 06:00 | 57.71284 | 56.84063 | 36001 ft | 456 kts | 296° |
| 2026-04-24 06:00 | 57.74061 | 56.73396 | 36002 ft | 456 kts | 295° |
| 2026-04-24 06:01 | 57.76825 | 56.62722 | 36002 ft | 456 kts | 295° |
| 2026-04-24 06:01 | 57.79586 | 56.52011 | 35997 ft | 456 kts | 295° |
| 2026-04-24 06:02 | 57.82333 | 56.41303 | 36003 ft | 456 kts | 295° |
| 2026-04-24 06:02 | 57.85073 | 56.30568 | 36005 ft | 456 kts | 295° |
| 2026-04-24 06:03 | 57.87803 | 56.19820 | 36002 ft | 456 kts | 295° |
| 2026-04-24 06:03 | 57.90532 | 56.09037 | 36003 ft | 456 kts | 295° |
| 2026-04-24 06:04 | 57.93486 | 55.98578 | 36003 ft | 456 kts | 303° |
| 2026-04-24 06:04 | 57.96483 | 55.90315 | 35999 ft | 456 kts | 304° |
| 2026-04-24 06:05 | 58.00505 | 55.79007 | 36001 ft | 456 kts | 303° |
| 2026-04-24 06:05 | 58.03411 | 55.70697 | 36000 ft | 456 kts | 303° |
| 2026-04-24 06:06 | 58.06896 | 55.60690 | 35999 ft | 456 kts | 303° |
| 2026-04-24 06:06 | 58.10379 | 55.50662 | 36000 ft | 456 kts | 303° |
| 2026-04-24 06:07 | 58.13858 | 55.40608 | 36001 ft | 456 kts | 303° |
| 2026-04-24 06:07 | 58.17319 | 55.30569 | 36003 ft | 456 kts | 303° |
| 2026-04-24 06:08 | 58.20781 | 55.20481 | 36004 ft | 456 kts | 302° |
| 2026-04-24 06:08 | 58.24237 | 55.10366 | 36001 ft | 456 kts | 302° |
| 2026-04-24 06:09 | 58.27660 | 55.00309 | 36004 ft | 456 kts | 302° |
| 2026-04-24 06:09 | 58.31100 | 54.90163 | 35997 ft | 457 kts | 302° |
| 2026-04-24 06:10 | 58.35161 | 54.80880 | 36007 ft | 456 kts | 315° |
| 2026-04-24 06:11 | 58.42019 | 54.68274 | 35998 ft | 457 kts | 315° |
| 2026-04-24 06:11 | 58.46571 | 54.59809 | 36002 ft | 457 kts | 315° |
| 2026-04-24 06:12 | 58.51095 | 54.51270 | 36000 ft | 457 kts | 315° |
| 2026-04-24 06:12 | 58.55607 | 54.42692 | 36001 ft | 457 kts | 315° |
| 2026-04-24 06:13 | 58.60109 | 54.34105 | 36002 ft | 457 kts | 315° |
| 2026-04-24 06:13 | 58.63473 | 54.27669 | 35997 ft | 457 kts | 315° |
| 2026-04-24 06:14 | 58.66827 | 54.21234 | 35999 ft | 457 kts | 314° |
| 2026-04-24 06:14 | 58.71317 | 54.12590 | 36000 ft | 457 kts | 314° |
| 2026-04-24 06:15 | 58.75803 | 54.03922 | 36005 ft | 457 kts | 314° |
| 2026-04-24 06:15 | 58.78768 | 53.98172 | 35999 ft | 457 kts | 314° |
| 2026-04-24 06:16 | 58.83899 | 53.88194 | 36003 ft | 457 kts | 314° |
| 2026-04-24 06:16 | 58.88882 | 53.80652 | 35993 ft | 457 kts | 331° |
| 2026-04-24 06:17 | 58.98149 | 53.71550 | 36005 ft | 457 kts | 333° |
| 2026-04-24 06:18 | 59.00884 | 53.68856 | 37538 ft | 457 kts | 332° |